SKSP/ADZ METAR and TAF weather

Enter ICAO airport designator
Station Type Date Time Source
SKSP METAR 2021/01/22 06:00 UTC NOAA

SKSP 220600Z 06011KT 9999 FEW018 27/22 Q1012 RMK A2989


Station Type Date Time Source
SKSP Decoded METAR 2021/01/22 06:00 UTC NOAA

San Andres Isla / Sesquicentenario, Colombia (SKSP) 12-35N 081-43W 6M
Jan 22, 2021 - 01:00 AM EST / 2021.01.22 0600 UTC
Wind: from the ENE (060 degrees) at 13 MPH (11 KT):0
Visibility: greater than 7 mile(s):0
Sky conditions: mostly clear
Temperature: 80 F (27 C)
Dew Point: 71 F (22 C)
Relative Humidity: 74%
Pressure (altimeter): 29.88 in. Hg (1012 hPa)
ob: SKSP 220600Z 06011KT 9999 FEW018 27/22 Q1012 RMK A2989
cycle: 6

Station Type Date Time Source
SKSP TAF 2021/01/22 06:48 UTC NOAA

TAF SKSP 220430Z 2206/2306 06012KT 9999 FEW017 SCT300 TX30/2218Z TN25/2210Z

Example: see airport list